createdAt,value
2022-10-01T00:00:45.475Z,14.05
2022-10-01T00:01:46.982Z,14.07
2022-10-01T00:02:48.508Z,14.04
2022-10-01T00:03:50.418Z,13.97
2022-10-01T00:04:51.902Z,13.94
2022-10-01T00:06:12.860Z,13.96
2022-10-01T00:07:15.369Z,13.88
2022-10-01T00:08:16.902Z,13.80
2022-10-01T00:09:18.351Z,13.83
2022-10-01T00:10:19.857Z,13.82
2022-10-01T00:11:22.156Z,13.75
2022-10-01T00:12:23.587Z,13.78
2022-10-01T00:13:25.540Z,13.78
2022-10-01T00:14:27.531Z,13.76
2022-10-01T00:15:28.999Z,13.68
2022-10-01T00:16:30.713Z,13.61
2022-10-01T00:17:32.616Z,13.61
2022-10-01T00:18:37.569Z,13.61
2022-10-01T00:19:38.994Z,13.64
2022-10-01T00:20:43.442Z,13.67
2022-10-01T00:21:44.899Z,13.73
2022-10-01T00:22:47.379Z,13.77
2022-10-01T00:23:53.281Z,13.79
2022-10-01T00:24:54.775Z,13.83
2022-10-01T00:25:56.391Z,13.71
2022-10-01T00:26:57.840Z,13.64
2022-10-01T00:27:59.371Z,13.62
2022-10-01T00:29:01.671Z,13.65
2022-10-01T00:30:06.819Z,13.70
2022-10-01T00:31:08.411Z,13.74
2022-10-01T00:32:09.981Z,13.77
2022-10-01T00:33:11.481Z,13.79
2022-10-01T00:34:13.777Z,13.72
2022-10-01T00:35:15.247Z,13.69
2022-10-01T00:36:16.770Z,13.69
2022-10-01T00:37:18.207Z,13.54
2022-10-01T00:38:19.647Z,13.53
2022-10-01T00:39:21.178Z,13.49
2022-10-01T00:40:22.674Z,13.49
2022-10-01T00:41:24.703Z,13.45
2022-10-01T00:42:26.855Z,13.46
2022-10-01T00:43:35.167Z,13.48
2022-10-01T00:44:37.028Z,13.48
2022-10-01T00:45:38.516Z,13.50
2022-10-01T00:46:43.385Z,13.49
2022-10-01T00:47:47.131Z,13.45
2022-10-01T00:48:59.221Z,13.38
2022-10-01T00:50:16.438Z,13.38
2022-10-01T00:51:17.952Z,13.41
2022-10-01T00:52:21.637Z,13.42
2022-10-01T00:53:23.069Z,13.38
2022-10-01T00:54:36.809Z,13.40
2022-10-01T00:55:40.095Z,13.35
2022-10-01T00:56:41.739Z,13.31
2022-10-01T00:57:43.202Z,13.27
2022-10-01T00:58:44.691Z,13.28
2022-10-01T00:59:46.123Z,13.25
2022-10-01T01:00:47.570Z,13.25
2022-10-01T01:01:49.243Z,13.18
2022-10-01T01:02:51.015Z,13.12
2022-10-01T01:03:52.458Z,13.14
2022-10-01T01:04:53.998Z,13.14
2022-10-01T01:05:55.427Z,13.05
2022-10-01T01:06:57.819Z,13.02
2022-10-01T01:08:01.598Z,13.04
2022-10-01T01:09:03.240Z,13.12
2022-10-01T01:10:04.816Z,13.12
2022-10-01T01:11:08.274Z,13.07
2022-10-01T01:12:27.987Z,13.08
2022-10-01T01:13:51.259Z,13.10
2022-10-01T01:15:11.760Z,13.09
2022-10-01T01:16:21.769Z,13.09
2022-10-01T01:17:25.071Z,13.08
2022-10-01T01:18:37.255Z,13.10
2022-10-01T01:19:50.908Z,13.10
2022-10-01T01:20:55.403Z,13.10
2022-10-01T01:22:00.308Z,13.09
2022-10-01T01:23:04.803Z,13.05
2022-10-01T01:24:15.120Z,13.04
2022-10-01T01:25:17.719Z,13.07
2022-10-01T01:26:21.187Z,13.09
2022-10-01T01:27:28.604Z,13.09
2022-10-01T01:28:31.731Z,13.05
2022-10-01T01:29:34.872Z,13.07
2022-10-01T01:30:37.124Z,13.10
2022-10-01T01:31:39.674Z,13.08
2022-10-01T01:33:11.873Z,13.04
2022-10-01T01:34:14.201Z,12.96
2022-10-01T01:35:19.291Z,12.88
2022-10-01T01:36:23.181Z,12.92
2022-10-01T01:37:26.674Z,12.89
2022-10-01T01:38:30.010Z,12.87
2022-10-01T01:39:31.995Z,12.88
2022-10-01T01:40:35.070Z,12.88
2022-10-01T01:41:37.668Z,12.80
2022-10-01T01:42:39.683Z,12.82
2022-10-01T01:43:41.856Z,12.75
2022-10-01T01:44:44.455Z,12.81
2022-10-01T01:45:45.938Z,12.79
2022-10-01T01:46:49.400Z,12.78
2022-10-01T01:47:51.035Z,12.76
2022-10-01T01:48:53.313Z,12.75
2022-10-01T01:49:54.746Z,12.56
2022-10-01T01:51:16.872Z,12.55
2022-10-01T01:52:18.442Z,12.65
2022-10-01T01:53:20.246Z,12.62
2022-10-01T01:54:21.772Z,12.51
2022-10-01T01:55:23.415Z,12.44
2022-10-01T01:56:24.880Z,12.40
2022-10-01T01:57:26.716Z,12.37
2022-10-01T01:58:28.254Z,12.34
2022-10-01T01:59:30.061Z,12.21
2022-10-01T02:00:31.495Z,12.22
2022-10-01T02:01:40.152Z,12.19
2022-10-01T02:02:43.861Z,12.06
2022-10-01T02:03:45.335Z,12.16
2022-10-01T02:05:16.146Z,12.21
2022-10-01T02:06:42.655Z,12.34
2022-10-01T02:07:44.122Z,12.50
2022-10-01T02:08:55.675Z,12.57
2022-10-01T02:10:03.006Z,12.52
2022-10-01T02:11:07.146Z,12.55
2022-10-01T02:12:30.291Z,12.59
2022-10-01T02:13:39.028Z,12.60
2022-10-01T02:14:45.115Z,12.61
2022-10-01T02:16:06.856Z,12.63
2022-10-01T02:17:10.996Z,12.72
2022-10-01T02:18:16.562Z,12.77
2022-10-01T02:19:38.815Z,12.77
2022-10-01T02:20:48.015Z,12.83
2022-10-01T02:21:49.696Z,12.85
2022-10-01T02:22:52.862Z,12.82
2022-10-01T02:23:58.108Z,12.83
2022-10-01T02:25:00.039Z,12.87
2022-10-01T02:26:19.617Z,12.91
2022-10-01T02:27:26.222Z,12.97
2022-10-01T02:28:27.957Z,13.01
2022-10-01T02:29:29.471Z,13.02
2022-10-01T02:30:31.406Z,13.07
2022-10-01T02:31:33.101Z,13.11
2022-10-01T02:32:35.491Z,13.14
2022-10-01T02:33:36.997Z,13.17
2022-10-01T02:34:38.460Z,13.21
2022-10-01T02:35:39.979Z,13.24
2022-10-01T02:36:42.104Z,13.30
2022-10-01T02:37:44.347Z,13.27
2022-10-01T02:38:45.827Z,13.28
2022-10-01T02:39:47.414Z,13.21
2022-10-01T02:40:48.888Z,13.23
2022-10-01T02:41:50.330Z,13.26
2022-10-01T02:42:55.283Z,13.25
2022-10-01T02:43:57.541Z,13.23
2022-10-01T02:45:02.618Z,13.23
2022-10-01T02:46:15.783Z,13.27
2022-10-01T02:47:34.118Z,13.26
2022-10-01T02:48:36.013Z,13.30
2022-10-01T02:49:37.498Z,13.25
2022-10-01T02:50:42.234Z,13.29
2022-10-01T02:51:46.218Z,13.27
2022-10-01T02:52:50.338Z,13.25
2022-10-01T02:53:53.484Z,13.23
2022-10-01T02:54:56.144Z,13.22
2022-10-01T02:55:57.651Z,13.22
2022-10-01T02:57:18.004Z,13.28
2022-10-01T02:58:19.482Z,13.34
2022-10-01T02:59:21.435Z,13.38
2022-10-01T03:00:23.007Z,13.40
2022-10-01T03:01:24.504Z,13.44
2022-10-01T03:02:29.606Z,13.49
2022-10-01T03:03:31.620Z,13.53
2022-10-01T03:04:33.086Z,13.53
2022-10-01T03:05:34.530Z,13.56
2022-10-01T03:06:36.131Z,13.58
2022-10-01T03:07:38.079Z,13.60
2022-10-01T03:08:39.510Z,13.61
2022-10-01T03:09:41.000Z,13.55
2022-10-01T03:10:46.023Z,13.51
2022-10-01T03:11:48.247Z,13.54
2022-10-01T03:12:51.015Z,13.56
2022-10-01T03:13:53.711Z,13.57
2022-10-01T03:14:55.351Z,13.58
2022-10-01T03:15:56.808Z,13.56
2022-10-01T03:16:58.303Z,13.44
2022-10-01T03:17:59.814Z,13.39
2022-10-01T03:19:01.384Z,13.34
2022-10-01T03:20:03.255Z,13.29
2022-10-01T03:21:04.766Z,13.19
2022-10-01T03:22:06.975Z,13.20
2022-10-01T03:23:08.503Z,13.21
2022-10-01T03:24:10.043Z,13.21
2022-10-01T03:25:11.512Z,13.08
2022-10-01T03:26:13.002Z,13.08
2022-10-01T03:27:14.445Z,13.12
2022-10-01T03:28:16.156Z,13.06
2022-10-01T03:29:17.875Z,13.07
2022-10-01T03:30:19.364Z,13.13
2022-10-01T03:31:20.875Z,13.14
2022-10-01T03:32:22.436Z,13.16
2022-10-01T03:33:23.879Z,13.18
2022-10-01T03:34:25.446Z,13.18
2022-10-01T03:35:26.954Z,13.22
2022-10-01T03:36:28.442Z,13.25
2022-10-01T03:37:29.867Z,13.29
2022-10-01T03:38:31.521Z,13.30
2022-10-01T03:39:33.020Z,13.32
2022-10-01T03:40:37.930Z,13.36
2022-10-01T03:41:39.432Z,13.39
2022-10-01T03:42:40.880Z,13.41
2022-10-01T03:43:42.354Z,13.43
2022-10-01T03:44:43.871Z,13.42
2022-10-01T03:45:45.424Z,13.35
2022-10-01T03:46:46.951Z,13.35
2022-10-01T03:47:54.326Z,13.36
2022-10-01T03:48:57.245Z,13.38
2022-10-01T03:49:58.715Z,13.29
2022-10-01T03:51:00.239Z,13.29
2022-10-01T03:52:02.568Z,13.34
2022-10-01T03:53:04.028Z,13.41
2022-10-01T03:54:05.790Z,13.38
2022-10-01T03:55:07.543Z,13.31
2022-10-01T03:56:09.050Z,13.34
2022-10-01T03:57:10.543Z,13.39
2022-10-01T03:58:11.994Z,13.36
2022-10-01T03:59:13.472Z,13.33
2022-10-01T04:00:15.218Z,13.35
2022-10-01T04:01:17.304Z,13.20
2022-10-01T04:02:19.939Z,13.22
2022-10-01T04:03:21.527Z,13.20
2022-10-01T04:04:22.986Z,13.22
2022-10-01T04:05:25.617Z,13.24
2022-10-01T04:06:27.139Z,13.23
2022-10-01T04:07:28.789Z,13.24
2022-10-01T04:08:30.270Z,13.16
2022-10-01T04:09:31.722Z,13.17
2022-10-01T04:10:33.431Z,13.21
2022-10-01T04:11:35.349Z,13.20
2022-10-01T04:12:37.071Z,13.23
2022-10-01T04:13:38.525Z,13.25
2022-10-01T04:14:40.007Z,13.25
2022-10-01T04:15:41.519Z,13.30
2022-10-01T04:16:43.413Z,13.23
2022-10-01T04:17:46.145Z,13.15
2022-10-01T04:18:47.676Z,13.13
2022-10-01T04:19:49.319Z,13.03
2022-10-01T04:20:51.039Z,13.04
2022-10-01T04:21:52.507Z,13.08
2022-10-01T04:22:54.246Z,13.12
2022-10-01T04:23:55.783Z,13.11
2022-10-01T04:24:57.239Z,13.14
2022-10-01T04:25:59.868Z,13.17
2022-10-01T04:27:01.332Z,13.19
2022-10-01T04:28:03.803Z,13.18
2022-10-01T04:29:05.319Z,13.16
2022-10-01T04:30:07.846Z,13.15
2022-10-01T04:31:24.605Z,13.05
2022-10-01T04:32:26.281Z,13.04
2022-10-01T04:33:27.747Z,13.13
2022-10-01T04:34:48.118Z,13.15
2022-10-01T04:35:49.738Z,13.17
2022-10-01T04:36:51.231Z,13.19
2022-10-01T04:37:59.181Z,13.22
2022-10-01T04:39:02.576Z,13.18
2022-10-01T04:40:05.014Z,13.21
2022-10-01T04:41:06.550Z,13.17
2022-10-01T04:42:08.167Z,13.25
2022-10-01T04:43:09.778Z,13.22
2022-10-01T04:44:11.240Z,13.20
2022-10-01T04:45:13.510Z,13.21
2022-10-01T04:46:15.103Z,13.22
2022-10-01T04:47:16.630Z,13.17
2022-10-01T04:48:18.118Z,13.15
2022-10-01T04:49:19.611Z,13.18
2022-10-01T04:50:21.771Z,13.17
2022-10-01T04:51:24.575Z,13.19
2022-10-01T04:52:26.474Z,13.14
2022-10-01T04:53:28.363Z,13.14
2022-10-01T04:54:29.866Z,13.16
2022-10-01T04:55:31.339Z,13.04
2022-10-01T04:56:32.781Z,13.16
2022-10-01T04:57:34.488Z,13.18
2022-10-01T04:58:36.023Z,13.15
2022-10-01T04:59:37.499Z,13.15
2022-10-01T05:00:38.991Z,13.07
2022-10-01T05:01:41.897Z,13.01
2022-10-01T05:02:44.632Z,13.05
2022-10-01T05:03:47.438Z,13.09
2022-10-01T05:04:49.018Z,13.11
2022-10-01T05:05:50.564Z,13.08
2022-10-01T05:06:52.144Z,13.11
2022-10-01T05:07:53.758Z,13.09
2022-10-01T05:08:55.231Z,13.07
2022-10-01T05:09:56.815Z,13.06
2022-10-01T05:11:01.030Z,13.04
2022-10-01T05:12:02.551Z,13.06
2022-10-01T05:13:04.077Z,12.98
2022-10-01T05:14:05.546Z,12.96
2022-10-01T05:15:07.367Z,13.01
2022-10-01T05:16:08.937Z,13.03
2022-10-01T05:17:10.457Z,12.98
2022-10-01T05:18:11.903Z,12.94
2022-10-01T05:19:14.243Z,12.75
2022-10-01T05:20:19.183Z,12.84
2022-10-01T05:21:20.864Z,12.87
2022-10-01T05:22:22.578Z,12.85
2022-10-01T05:23:24.044Z,12.81
2022-10-01T05:24:26.141Z,12.83
2022-10-01T05:25:27.717Z,12.85
2022-10-01T05:26:32.052Z,12.83
2022-10-01T05:27:37.771Z,12.77
2022-10-01T05:28:44.393Z,12.81
2022-10-01T05:29:46.887Z,12.85
2022-10-01T05:30:48.381Z,12.77
2022-10-01T05:31:50.363Z,12.73
2022-10-01T05:32:55.519Z,12.68
2022-10-01T05:33:57.262Z,12.52
2022-10-01T05:34:58.731Z,12.52
2022-10-01T05:36:00.927Z,12.52
2022-10-01T05:37:02.902Z,12.59
2022-10-01T05:38:04.452Z,12.68
2022-10-01T05:39:05.972Z,12.65
2022-10-01T05:40:07.500Z,12.65
2022-10-01T05:41:09.023Z,12.58
2022-10-01T05:42:10.494Z,12.57
2022-10-01T05:43:12.138Z,12.56
2022-10-01T05:44:13.633Z,12.63
2022-10-01T05:45:15.104Z,12.64
2022-10-01T05:46:16.699Z,12.63
2022-10-01T05:47:18.438Z,12.70
2022-10-01T05:48:19.900Z,12.74
2022-10-01T05:49:24.272Z,12.78
2022-10-01T05:50:25.859Z,12.78
2022-10-01T05:51:27.426Z,12.79
2022-10-01T05:52:28.892Z,12.78
2022-10-01T05:53:30.366Z,12.79
2022-10-01T05:54:31.842Z,12.80
2022-10-01T05:55:34.507Z,12.83
2022-10-01T05:56:36.848Z,12.87
2022-10-01T05:57:38.889Z,12.90
2022-10-01T05:58:40.388Z,12.94
2022-10-01T05:59:41.873Z,12.99
2022-10-01T06:00:43.421Z,12.98
2022-10-01T06:01:44.977Z,12.99
2022-10-01T06:02:49.986Z,13.00
2022-10-01T06:03:52.248Z,12.95
2022-10-01T06:04:53.762Z,13.01
2022-10-01T06:05:55.655Z,12.97
2022-10-01T06:06:57.232Z,12.98
2022-10-01T06:07:58.714Z,12.95
2022-10-01T06:09:00.215Z,12.99
2022-10-01T06:10:01.655Z,13.01
2022-10-01T06:11:03.291Z,12.97
2022-10-01T06:12:05.536Z,12.97
2022-10-01T06:13:07.162Z,12.93
2022-10-01T06:14:08.611Z,12.94
2022-10-01T06:15:10.479Z,12.83
2022-10-01T06:16:12.621Z,12.81
2022-10-01T06:17:14.129Z,12.82
2022-10-01T06:18:15.583Z,12.87
2022-10-01T06:19:17.465Z,12.87
2022-10-01T06:20:20.599Z,12.86
2022-10-01T06:21:22.055Z,12.89
2022-10-01T06:22:23.603Z,12.84
2022-10-01T06:23:25.067Z,12.87
2022-10-01T06:24:26.767Z,12.85
2022-10-01T06:25:31.623Z,12.90
2022-10-01T06:26:33.071Z,12.93
2022-10-01T06:27:34.547Z,12.97
2022-10-01T06:28:36.067Z,13.02
2022-10-01T06:29:37.834Z,13.07
2022-10-01T06:30:39.986Z,13.12
2022-10-01T06:31:41.851Z,13.10
2022-10-01T06:32:43.339Z,13.09
2022-10-01T06:33:44.870Z,13.07
2022-10-01T06:34:46.359Z,13.06
2022-10-01T06:35:48.800Z,13.03
2022-10-01T06:36:50.305Z,13.02
2022-10-01T06:37:51.776Z,12.96
2022-10-01T06:38:53.278Z,12.99
2022-10-01T06:39:54.888Z,12.92
2022-10-01T06:40:58.994Z,12.94
2022-10-01T06:42:00.545Z,12.99
2022-10-01T06:43:01.992Z,13.06
2022-10-01T06:44:03.479Z,13.02
2022-10-01T06:45:05.181Z,13.05
2022-10-01T06:46:06.851Z,13.05
2022-10-01T06:47:08.695Z,13.00
2022-10-01T06:48:13.900Z,12.97
2022-10-01T06:49:15.728Z,12.95
2022-10-01T06:50:17.235Z,12.91
2022-10-01T06:51:38.706Z,12.94
2022-10-01T06:52:49.302Z,12.93
2022-10-01T06:53:50.790Z,12.96
2022-10-01T06:54:52.307Z,13.01
2022-10-01T06:55:53.859Z,13.03
2022-10-01T06:56:55.320Z,13.05
2022-10-01T06:58:03.425Z,13.07
2022-10-01T06:59:04.992Z,13.06
2022-10-01T07:00:06.674Z,13.02
2022-10-01T07:01:08.277Z,13.09
2022-10-01T07:02:15.129Z,13.16
2022-10-01T07:03:17.475Z,13.18
2022-10-01T07:04:19.213Z,13.21
2022-10-01T07:05:20.647Z,13.28
2022-10-01T07:06:22.086Z,13.34
2022-10-01T07:07:28.158Z,13.39
2022-10-01T07:08:31.407Z,13.42
2022-10-01T07:09:32.946Z,13.42
2022-10-01T07:10:34.901Z,13.46
2022-10-01T07:11:36.845Z,13.42
2022-10-01T07:12:38.383Z,13.44
2022-10-01T07:13:39.883Z,13.48
2022-10-01T07:14:41.463Z,13.51
2022-10-01T07:15:42.975Z,13.53
2022-10-01T07:16:44.546Z,13.58
2022-10-01T07:17:47.040Z,13.58
2022-10-01T07:18:48.506Z,13.59
2022-10-01T07:19:50.002Z,13.62
2022-10-01T07:20:51.554Z,13.65
2022-10-01T07:21:53.060Z,13.65
2022-10-01T07:22:58.097Z,13.64
2022-10-01T07:23:59.623Z,13.64
2022-10-01T07:25:01.074Z,13.61
2022-10-01T07:26:06.002Z,13.62
2022-10-01T07:27:07.693Z,13.55
2022-10-01T07:28:16.113Z,13.45
2022-10-01T07:29:17.891Z,13.38
2022-10-01T07:30:19.372Z,13.38
2022-10-01T07:31:20.844Z,13.36
2022-10-01T07:32:22.343Z,13.35
2022-10-01T07:33:23.833Z,13.31
2022-10-01T07:34:25.975Z,13.29
2022-10-01T07:35:28.545Z,13.25
2022-10-01T07:36:30.915Z,13.27
2022-10-01T07:37:32.361Z,13.25
2022-10-01T07:38:33.883Z,13.27
2022-10-01T07:39:35.890Z,13.29
2022-10-01T07:40:37.390Z,13.23
2022-10-01T07:41:38.955Z,13.28
2022-10-01T07:42:41.090Z,13.31
2022-10-01T07:43:43.860Z,13.15
2022-10-01T07:44:45.355Z,13.15
2022-10-01T07:45:47.347Z,13.17
2022-10-01T07:46:48.923Z,13.17
2022-10-01T07:47:56.806Z,13.20
2022-10-01T07:48:58.287Z,13.20
2022-10-01T07:49:59.783Z,13.21
2022-10-01T07:51:01.415Z,13.16
2022-10-01T07:52:02.871Z,13.11
2022-10-01T07:53:04.650Z,13.05
2022-10-01T07:54:06.115Z,12.95
2022-10-01T07:55:10.992Z,12.97
2022-10-01T07:56:12.494Z,12.94
2022-10-01T07:57:14.386Z,13.01
2022-10-01T07:58:15.959Z,13.00
2022-10-01T07:59:18.038Z,12.97
2022-10-01T08:00:19.646Z,12.90
2022-10-01T08:01:21.173Z,12.91
2022-10-01T08:02:22.848Z,12.99
2022-10-01T08:03:24.687Z,13.06
2022-10-01T08:04:44.506Z,13.13
2022-10-01T08:05:46.761Z,13.23
2022-10-01T08:06:49.063Z,13.21
2022-10-01T08:07:50.674Z,13.25
2022-10-01T08:08:52.123Z,13.29
2022-10-01T08:09:53.610Z,13.37
2022-10-01T08:10:55.067Z,13.39
2022-10-01T08:11:56.512Z,13.41
2022-10-01T08:13:01.480Z,13.44
2022-10-01T08:14:04.639Z,13.42
2022-10-01T08:15:08.486Z,13.42
2022-10-01T08:16:11.803Z,13.43
2022-10-01T08:17:13.634Z,13.50
2022-10-01T08:18:15.121Z,13.51
2022-10-01T08:19:16.644Z,13.52
2022-10-01T08:20:18.178Z,13.55
2022-10-01T08:21:19.764Z,13.58
2022-10-01T08:22:21.197Z,13.56
2022-10-01T08:23:22.732Z,13.54
2022-10-01T08:24:24.927Z,13.56
2022-10-01T08:25:26.372Z,13.57
2022-10-01T08:26:27.943Z,13.60
2022-10-01T08:27:29.415Z,13.63
2022-10-01T08:28:30.942Z,13.71
2022-10-01T08:29:34.338Z,13.72
2022-10-01T08:30:36.480Z,13.75
2022-10-01T08:31:38.292Z,13.79
2022-10-01T08:32:39.996Z,13.86
2022-10-01T08:33:41.419Z,13.85
2022-10-01T08:34:42.898Z,13.87
2022-10-01T08:35:44.518Z,13.91
2022-10-01T08:36:50.992Z,13.93
2022-10-01T08:37:52.500Z,13.95
2022-10-01T08:38:53.963Z,13.93
2022-10-01T08:39:55.805Z,13.85
2022-10-01T08:40:57.231Z,13.83
2022-10-01T08:42:01.648Z,13.88
2022-10-01T08:43:06.118Z,13.88
2022-10-01T08:44:07.611Z,13.91
2022-10-01T08:45:11.612Z,13.93
2022-10-01T08:46:13.986Z,13.96
2022-10-01T08:47:24.859Z,13.99
2022-10-01T08:48:58.664Z,13.96
2022-10-01T08:50:00.792Z,14.00
2022-10-01T08:51:04.958Z,14.03
2022-10-01T08:52:13.310Z,14.10
2022-10-01T08:53:18.523Z,14.10
2022-10-01T08:54:22.797Z,14.12
2022-10-01T08:55:24.875Z,14.08
2022-10-01T08:56:30.554Z,14.01
2022-10-01T08:57:39.506Z,14.04
2022-10-01T08:58:42.251Z,14.04
2022-10-01T08:59:44.273Z,14.07
2022-10-01T09:00:45.955Z,14.08
2022-10-01T09:01:48.528Z,14.08
2022-10-01T09:02:50.435Z,14.14
2022-10-01T09:03:51.971Z,14.16
2022-10-01T09:04:58.899Z,14.15
2022-10-01T09:06:10.669Z,14.16
2022-10-01T09:07:22.857Z,14.18
2022-10-01T09:08:24.280Z,14.21
2022-10-01T09:09:29.761Z,14.24
2022-10-01T09:10:43.381Z,14.22
2022-10-01T09:11:44.876Z,14.27
2022-10-01T09:12:52.131Z,14.25
2022-10-01T09:13:54.424Z,14.27
2022-10-01T09:15:01.878Z,14.33
2022-10-01T09:16:06.661Z,14.35
2022-10-01T09:17:10.864Z,14.36
2022-10-01T09:18:19.006Z,14.37
2022-10-01T09:19:26.122Z,14.38
2022-10-01T09:20:29.511Z,14.38
2022-10-01T09:21:49.047Z,14.41
2022-10-01T09:23:03.967Z,14.45
2022-10-01T09:24:15.585Z,14.42
2022-10-01T09:25:19.791Z,14.46
2022-10-01T09:26:25.533Z,14.46
2022-10-01T09:27:27.350Z,14.48
2022-10-01T09:28:29.776Z,14.47
2022-10-01T09:29:32.952Z,14.51
2022-10-01T09:30:34.419Z,14.53
2022-10-01T09:31:37.442Z,14.47
2022-10-01T09:32:41.423Z,14.45
2022-10-01T09:33:44.502Z,14.48
2022-10-01T09:34:46.008Z,14.50
2022-10-01T09:35:54.635Z,14.51
2022-10-01T09:37:05.664Z,14.54
2022-10-01T09:38:20.723Z,14.52
2022-10-01T09:39:26.606Z,14.53
2022-10-01T09:40:49.254Z,14.57
2022-10-01T09:41:50.837Z,14.57
2022-10-01T09:42:52.300Z,14.53
2022-10-01T09:43:53.739Z,14.55
2022-10-01T09:44:55.762Z,14.53
2022-10-01T09:45:57.782Z,14.55
2022-10-01T09:46:59.257Z,14.56
2022-10-01T09:48:05.195Z,14.57
2022-10-01T09:49:11.428Z,14.61
2022-10-01T09:50:13.739Z,14.65
2022-10-01T09:51:15.218Z,14.63
2022-10-01T09:52:19.186Z,14.68
2022-10-01T09:53:21.103Z,14.72
2022-10-01T09:54:43.216Z,14.75
2022-10-01T09:55:45.207Z,14.76
2022-10-01T09:56:48.395Z,14.76
2022-10-01T09:57:53.816Z,14.80
2022-10-01T09:58:56.406Z,14.84
2022-10-01T10:00:00.758Z,14.83
2022-10-01T10:01:02.240Z,14.85
2022-10-01T10:02:04.412Z,14.89
2022-10-01T10:03:06.060Z,14.87
2022-10-01T10:04:07.698Z,14.85
2022-10-01T10:05:10.455Z,14.83
2022-10-01T10:06:12.496Z,14.85
2022-10-01T10:07:15.668Z,14.86
2022-10-01T10:08:30.360Z,14.87
2022-10-01T10:09:32.424Z,14.93
2022-10-01T10:10:36.916Z,14.95
2022-10-01T10:11:38.375Z,14.98
2022-10-01T10:12:39.962Z,14.99
2022-10-01T10:13:42.155Z,15.02
2022-10-01T10:14:44.887Z,15.08
2022-10-01T10:15:49.804Z,15.06
2022-10-01T10:16:51.345Z,15.08
2022-10-01T10:17:52.955Z,15.05
2022-10-01T10:18:56.651Z,15.05
2022-10-01T10:19:58.155Z,15.07
2022-10-01T10:20:59.625Z,15.10
2022-10-01T10:22:11.121Z,15.10
2022-10-01T10:23:16.451Z,15.08
2022-10-01T10:24:26.503Z,15.04
2022-10-01T10:25:28.024Z,15.09
2022-10-01T10:26:35.658Z,15.09
2022-10-01T10:27:37.421Z,15.07
2022-10-01T10:28:43.427Z,15.12
2022-10-01T10:29:45.594Z,15.13
2022-10-01T10:30:47.159Z,15.20
2022-10-01T10:31:51.076Z,15.24
2022-10-01T10:32:52.861Z,15.22
2022-10-01T10:34:00.904Z,15.21
2022-10-01T10:35:04.776Z,15.16
2022-10-01T10:36:06.356Z,15.18
2022-10-01T10:37:14.728Z,15.20
2022-10-01T10:38:19.198Z,15.23
2022-10-01T10:39:30.548Z,15.23
2022-10-01T10:40:42.230Z,15.15
2022-10-01T10:41:43.953Z,15.21
2022-10-01T10:42:49.020Z,15.23
2022-10-01T10:43:50.624Z,15.28
2022-10-01T10:44:52.845Z,15.33
2022-10-01T10:45:57.373Z,15.35
2022-10-01T10:47:03.375Z,15.40
2022-10-01T10:48:05.443Z,15.46
2022-10-01T10:49:15.859Z,15.50
2022-10-01T10:50:25.717Z,15.47
2022-10-01T10:51:28.322Z,15.47
2022-10-01T10:52:30.630Z,15.50
2022-10-01T10:53:44.930Z,15.52
2022-10-01T10:54:49.944Z,15.53
2022-10-01T10:55:55.425Z,15.59
2022-10-01T10:57:00.827Z,15.62
2022-10-01T10:58:12.031Z,15.58
2022-10-01T10:59:13.506Z,15.60
2022-10-01T11:00:16.480Z,15.62
2022-10-01T11:01:20.148Z,15.64
2022-10-01T11:02:21.720Z,15.69
2022-10-01T11:03:26.684Z,15.70
2022-10-01T11:04:30.811Z,15.73
2022-10-01T11:05:32.979Z,15.73
2022-10-01T11:06:34.653Z,15.71
2022-10-01T11:07:36.278Z,15.70
2022-10-01T11:08:37.999Z,15.70
2022-10-01T11:09:40.155Z,15.73
2022-10-01T11:10:53.796Z,15.73
2022-10-01T11:11:55.975Z,15.65
2022-10-01T11:13:03.354Z,15.68
2022-10-01T11:14:13.820Z,15.70
2022-10-01T11:15:20.918Z,15.71
2022-10-01T11:16:48.871Z,15.76
2022-10-01T11:17:55.271Z,15.79
2022-10-01T11:19:01.363Z,15.81
2022-10-01T11:20:22.692Z,15.84
2022-10-01T11:21:24.107Z,15.81
2022-10-01T11:22:44.491Z,15.81
2022-10-01T11:23:50.423Z,15.84
2022-10-01T11:24:59.000Z,15.82
2022-10-01T11:26:10.708Z,15.86
2022-10-01T11:27:12.531Z,15.91
2022-10-01T11:28:25.943Z,15.97
2022-10-01T11:29:36.780Z,16.03
2022-10-01T11:30:41.918Z,16.08
2022-10-01T11:31:43.375Z,16.12
2022-10-01T11:32:46.094Z,16.13
2022-10-01T11:33:50.552Z,16.16
2022-10-01T11:35:05.070Z,16.16
2022-10-01T11:36:16.657Z,16.15
2022-10-01T11:37:33.011Z,16.19
2022-10-01T11:38:41.895Z,16.19
2022-10-01T11:39:43.403Z,16.17
2022-10-01T11:41:07.857Z,16.19
2022-10-01T11:42:19.711Z,16.22
2022-10-01T11:43:22.499Z,16.23
2022-10-01T11:44:29.127Z,16.26
2022-10-01T11:45:32.060Z,16.28
2022-10-01T11:46:36.454Z,16.32
2022-10-01T11:47:40.174Z,16.38
2022-10-01T11:48:43.210Z,16.42
2022-10-01T11:49:50.647Z,16.45
2022-10-01T11:50:52.895Z,16.45
2022-10-01T11:51:59.868Z,16.45
2022-10-01T11:53:04.504Z,16.48
2022-10-01T11:54:07.202Z,16.49
2022-10-01T11:55:40.170Z,16.54
2022-10-01T11:57:08.275Z,16.62
2022-10-01T11:58:35.995Z,16.63
2022-10-01T11:59:38.545Z,16.67
2022-10-01T12:00:40.217Z,16.66
2022-10-01T12:01:41.709Z,16.71
2022-10-01T12:03:03.787Z,16.69
2022-10-01T12:04:07.392Z,16.68
2022-10-01T12:05:28.071Z,16.67
2022-10-01T12:06:53.127Z,16.71
2022-10-01T12:08:04.387Z,16.74
2022-10-01T12:09:20.941Z,16.70
2022-10-01T12:10:34.559Z,16.65
2022-10-01T12:11:37.372Z,16.67
2022-10-01T12:12:40.636Z,16.67
2022-10-01T12:13:47.746Z,16.72
2022-10-01T12:14:51.025Z,16.75
2022-10-01T12:15:52.480Z,16.80
2022-10-01T12:16:55.190Z,16.84
2022-10-01T12:18:07.795Z,16.87
2022-10-01T12:19:12.687Z,16.90
2022-10-01T12:20:27.885Z,16.88
2022-10-01T12:21:32.805Z,16.85
2022-10-01T12:22:36.253Z,16.89
2022-10-01T12:23:44.119Z,16.94
2022-10-01T12:24:45.989Z,16.97
2022-10-01T12:25:51.295Z,17.02
2022-10-01T12:26:55.199Z,17.01
2022-10-01T12:28:05.538Z,17.02
2022-10-01T12:29:31.009Z,17.05
2022-10-01T12:30:35.654Z,17.10
2022-10-01T12:31:41.876Z,17.13
2022-10-01T12:33:18.645Z,17.16
2022-10-01T12:34:22.362Z,17.15
2022-10-01T12:35:35.722Z,17.10
2022-10-01T12:37:15.667Z,17.10
2022-10-01T12:38:19.768Z,17.11
2022-10-01T12:39:23.691Z,17.12
2022-10-01T12:40:33.246Z,17.13
2022-10-01T12:41:42.034Z,17.13
2022-10-01T12:42:59.879Z,17.11
2022-10-01T12:44:21.476Z,17.09
2022-10-01T12:45:43.217Z,17.11
2022-10-01T12:46:50.320Z,17.16
2022-10-01T12:47:51.727Z,17.18
2022-10-01T12:48:54.808Z,17.22
2022-10-01T12:50:08.450Z,17.25
2022-10-01T12:51:28.843Z,17.29
2022-10-01T12:52:33.875Z,17.34
2022-10-01T12:53:54.078Z,17.35
2022-10-01T12:54:55.574Z,17.40
2022-10-01T12:55:58.620Z,17.47
2022-10-01T12:57:00.046Z,17.48
2022-10-01T12:58:07.458Z,17.54
2022-10-01T12:59:09.544Z,17.60
2022-10-01T13:00:16.836Z,17.65
2022-10-01T13:01:18.709Z,17.67
2022-10-01T13:02:20.293Z,17.73
2022-10-01T13:03:24.748Z,17.80
2022-10-01T13:04:35.186Z,17.87
2022-10-01T13:05:45.513Z,17.91
2022-10-01T13:07:07.915Z,17.98
2022-10-01T13:08:18.493Z,18.07
2022-10-01T13:09:25.178Z,18.14
2022-10-01T13:10:44.655Z,18.19
2022-10-01T13:11:46.110Z,18.24
2022-10-01T13:12:58.827Z,18.24
2022-10-01T13:14:00.934Z,18.26
2022-10-01T13:15:03.158Z,18.27
2022-10-01T13:16:07.302Z,18.33
2022-10-01T13:17:13.684Z,18.41
2022-10-01T13:18:19.722Z,18.44
2022-10-01T13:19:39.968Z,18.46
2022-10-01T13:20:44.579Z,18.49
2022-10-01T13:22:07.723Z,18.54
2022-10-01T13:23:11.327Z,18.57
2022-10-01T13:24:16.303Z,18.58
2022-10-01T13:25:20.938Z,18.61
2022-10-01T13:26:26.596Z,18.65
2022-10-01T13:27:33.984Z,18.67
2022-10-01T13:29:04.587Z,18.72
2022-10-01T13:30:06.243Z,18.76
2022-10-01T13:31:11.655Z,18.81
2022-10-01T13:32:32.245Z,18.82
2022-10-01T13:33:36.106Z,18.86
2022-10-01T13:34:38.577Z,18.86
2022-10-01T13:35:40.045Z,18.90
2022-10-01T13:36:41.539Z,18.94
2022-10-01T13:37:43.764Z,18.96
2022-10-01T13:38:46.099Z,19.02
2022-10-01T13:39:47.572Z,19.07
2022-10-01T13:40:56.852Z,19.13
2022-10-01T13:41:58.722Z,19.14
2022-10-01T13:43:03.628Z,19.11
2022-10-01T13:44:08.394Z,19.08
2022-10-01T13:45:20.911Z,19.07
2022-10-01T13:46:22.371Z,19.08
2022-10-01T13:47:24.082Z,19.08
2022-10-01T13:48:26.495Z,19.07
2022-10-01T13:49:28.739Z,19.04
2022-10-01T13:50:30.323Z,19.10
2022-10-01T13:51:38.055Z,19.13